sensor_id;sensor_type;location;lat;lon;timestamp;P1;durP1;ratioP1;P2;durP2;ratioP2
67965;SDS011;54749;47.850;9.002;2023-02-28T00:00:49;12.90;;;4.85;;
67965;SDS011;54749;47.850;9.002;2023-02-28T00:03:17;13.27;;;5.32;;
67965;SDS011;54749;47.850;9.002;2023-02-28T00:05:45;12.40;;;5.03;;
67965;SDS011;54749;47.850;9.002;2023-02-28T00:08:12;13.07;;;5.40;;
67965;SDS011;54749;47.850;9.002;2023-02-28T00:10:40;12.77;;;5.22;;
67965;SDS011;54749;47.850;9.002;2023-02-28T00:13:06;10.65;;;4.70;;
67965;SDS011;54749;47.850;9.002;2023-02-28T00:15:34;14.48;;;5.70;;
67965;SDS011;54749;47.850;9.002;2023-02-28T00:18:01;12.23;;;4.83;;
67965;SDS011;54749;47.850;9.002;2023-02-28T00:20:29;12.90;;;4.90;;
67965;SDS011;54749;47.850;9.002;2023-02-28T00:22:57;13.32;;;5.20;;
67965;SDS011;54749;47.850;9.002;2023-02-28T00:25:25;10.88;;;4.80;;
67965;SDS011;54749;47.850;9.002;2023-02-28T00:27:52;10.82;;;4.78;;
67965;SDS011;54749;47.850;9.002;2023-02-28T00:30:20;13.27;;;4.97;;
67965;SDS011;54749;47.850;9.002;2023-02-28T00:32:49;11.73;;;4.75;;
67965;SDS011;54749;47.850;9.002;2023-02-28T00:35:17;14.43;;;5.15;;
67965;SDS011;54749;47.850;9.002;2023-02-28T00:37:44;10.52;;;4.75;;
67965;SDS011;54749;47.850;9.002;2023-02-28T00:40:11;11.45;;;4.60;;
67965;SDS011;54749;47.850;9.002;2023-02-28T00:42:39;12.17;;;4.70;;
67965;SDS011;54749;47.850;9.002;2023-02-28T00:45:06;9.45;;;4.32;;
67965;SDS011;54749;47.850;9.002;2023-02-28T00:47:37;10.57;;;4.70;;
67965;SDS011;54749;47.850;9.002;2023-02-28T00:50:04;10.98;;;4.57;;
67965;SDS011;54749;47.850;9.002;2023-02-28T00:52:32;10.27;;;4.10;;
67965;SDS011;54749;47.850;9.002;2023-02-28T00:54:59;11.37;;;4.20;;
67965;SDS011;54749;47.850;9.002;2023-02-28T00:57:26;10.27;;;4.15;;
67965;SDS011;54749;47.850;9.002;2023-02-28T00:59:53;11.77;;;4.72;;
67965;SDS011;54749;47.850;9.002;2023-02-28T01:02:22;10.63;;;4.43;;
67965;SDS011;54749;47.850;9.002;2023-02-28T01:04:52;11.95;;;4.43;;
67965;SDS011;54749;47.850;9.002;2023-02-28T01:07:19;11.43;;;4.37;;
67965;SDS011;54749;47.850;9.002;2023-02-28T01:09:46;12.82;;;4.53;;
67965;SDS011;54749;47.850;9.002;2023-02-28T01:12:13;11.77;;;4.70;;
67965;SDS011;54749;47.850;9.002;2023-02-28T01:14:40;10.07;;;4.25;;
67965;SDS011;54749;47.850;9.002;2023-02-28T01:17:08;10.40;;;4.20;;
67965;SDS011;54749;47.850;9.002;2023-02-28T01:19:36;10.93;;;4.20;;
67965;SDS011;54749;47.850;9.002;2023-02-28T01:22:03;12.25;;;4.55;;
67965;SDS011;54749;47.850;9.002;2023-02-28T01:24:31;10.15;;;4.18;;
67965;SDS011;54749;47.850;9.002;2023-02-28T01:26:59;10.65;;;4.50;;
67965;SDS011;54749;47.850;9.002;2023-02-28T01:29:27;9.05;;;3.85;;
67965;SDS011;54749;47.850;9.002;2023-02-28T01:31:54;12.67;;;4.03;;
67965;SDS011;54749;47.850;9.002;2023-02-28T01:34:21;10.70;;;4.18;;
67965;SDS011;54749;47.850;9.002;2023-02-28T01:36:48;10.60;;;4.43;;
67965;SDS011;54749;47.850;9.002;2023-02-28T01:39:15;11.52;;;4.20;;
67965;SDS011;54749;47.850;9.002;2023-02-28T01:41:42;11.45;;;4.80;;
67965;SDS011;54749;47.850;9.002;2023-02-28T01:47:14;9.25;;;4.00;;
67965;SDS011;54749;47.850;9.002;2023-02-28T01:49:41;12.60;;;4.50;;
67965;SDS011;54749;47.850;9.002;2023-02-28T01:52:09;10.95;;;4.28;;
67965;SDS011;54749;47.850;9.002;2023-02-28T01:54:41;11.32;;;4.30;;
67965;SDS011;54749;47.850;9.002;2023-02-28T01:57:10;14.23;;;4.40;;
67965;SDS011;54749;47.850;9.002;2023-02-28T01:59:42;10.63;;;4.28;;
67965;SDS011;54749;47.850;9.002;2023-02-28T02:02:16;15.30;;;5.30;;
67965;SDS011;54749;47.850;9.002;2023-02-28T02:04:50;11.60;;;4.70;;
67965;SDS011;54749;47.850;9.002;2023-02-28T02:07:21;10.07;;;4.30;;
67965;SDS011;54749;47.850;9.002;2023-02-28T02:09:49;10.90;;;4.60;;
67965;SDS011;54749;47.850;9.002;2023-02-28T02:12:29;12.15;;;4.88;;
67965;SDS011;54749;47.850;9.002;2023-02-28T02:15:20;9.35;;;4.15;;
67965;SDS011;54749;47.850;9.002;2023-02-28T02:17:53;12.32;;;4.85;;
67965;SDS011;54749;47.850;9.002;2023-02-28T02:37:39;10.30;;;4.27;;
67965;SDS011;54749;47.850;9.002;2023-02-28T02:40:13;11.65;;;4.40;;
67965;SDS011;54749;47.850;9.002;2023-02-28T02:45:37;11.02;;;4.72;;
67965;SDS011;54749;47.850;9.002;2023-02-28T02:48:09;9.20;;;4.00;;
67965;SDS011;54749;47.850;9.002;2023-02-28T02:50:41;11.77;;;4.97;;
67965;SDS011;54749;47.850;9.002;2023-02-28T02:53:12;11.05;;;4.68;;
67965;SDS011;54749;47.850;9.002;2023-02-28T02:55:44;11.05;;;4.43;;
67965;SDS011;54749;47.850;9.002;2023-02-28T02:58:15;14.95;;;5.38;;
67965;SDS011;54749;47.850;9.002;2023-02-28T03:00:50;10.75;;;4.93;;
67965;SDS011;54749;47.850;9.002;2023-02-28T03:03:21;11.63;;;5.00;;
67965;SDS011;54749;47.850;9.002;2023-02-28T03:05:56;10.73;;;4.25;;
67965;SDS011;54749;47.850;9.002;2023-02-28T03:08:25;10.80;;;4.15;;
67965;SDS011;54749;47.850;9.002;2023-02-28T03:11:03;9.90;;;4.32;;
67965;SDS011;54749;47.850;9.002;2023-02-28T03:26:58;9.38;;;4.22;;
67965;SDS011;54749;47.850;9.002;2023-02-28T03:29:35;10.50;;;4.30;;
67965;SDS011;54749;47.850;9.002;2023-02-28T03:32:16;9.48;;;3.90;;
67965;SDS011;54749;47.850;9.002;2023-02-28T03:34:50;9.25;;;4.00;;
67965;SDS011;54749;47.850;9.002;2023-02-28T03:37:24;12.00;;;4.20;;
67965;SDS011;54749;47.850;9.002;2023-02-28T03:39:56;9.75;;;4.20;;
67965;SDS011;54749;47.850;9.002;2023-02-28T03:42:28;12.67;;;4.80;;
67965;SDS011;54749;47.850;9.002;2023-02-28T03:44:58;14.02;;;4.28;;
67965;SDS011;54749;47.850;9.002;2023-02-28T03:47:31;12.27;;;4.47;;
67965;SDS011;54749;47.850;9.002;2023-02-28T03:52:48;12.07;;;4.70;;
67965;SDS011;54749;47.850;9.002;2023-02-28T03:55:19;9.13;;;4.27;;
67965;SDS011;54749;47.850;9.002;2023-02-28T03:57:56;11.82;;;4.75;;
67965;SDS011;54749;47.850;9.002;2023-02-28T04:00:31;9.88;;;4.53;;
67965;SDS011;54749;47.850;9.002;2023-02-28T04:03:03;12.57;;;4.63;;
67965;SDS011;54749;47.850;9.002;2023-02-28T04:05:31;10.20;;;4.50;;
67965;SDS011;54749;47.850;9.002;2023-02-28T04:08:05;11.17;;;5.00;;
67965;SDS011;54749;47.850;9.002;2023-02-28T04:10:34;14.68;;;4.78;;
67965;SDS011;54749;47.850;9.002;2023-02-28T04:13:01;18.02;;;4.32;;
67965;SDS011;54749;47.850;9.002;2023-02-28T04:15:28;11.23;;;4.60;;
67965;SDS011;54749;47.850;9.002;2023-02-28T04:17:55;10.13;;;4.20;;
67965;SDS011;54749;47.850;9.002;2023-02-28T04:20:22;10.47;;;4.13;;
67965;SDS011;54749;47.850;9.002;2023-02-28T04:22:49;10.32;;;4.00;;
67965;SDS011;54749;47.850;9.002;2023-02-28T04:25:16;9.75;;;4.28;;
67965;SDS011;54749;47.850;9.002;2023-02-28T04:27:43;11.05;;;3.92;;
67965;SDS011;54749;47.850;9.002;2023-02-28T04:30:11;12.45;;;5.22;;
67965;SDS011;54749;47.850;9.002;2023-02-28T04:32:38;10.67;;;4.17;;
67965;SDS011;54749;47.850;9.002;2023-02-28T04:35:06;14.02;;;4.95;;
67965;SDS011;54749;47.850;9.002;2023-02-28T04:37:33;12.20;;;4.45;;
67965;SDS011;54749;47.850;9.002;2023-02-28T04:40:03;10.68;;;4.22;;
67965;SDS011;54749;47.850;9.002;2023-02-28T04:42:30;10.65;;;4.60;;
67965;SDS011;54749;47.850;9.002;2023-02-28T04:45:02;13.17;;;4.80;;
67965;SDS011;54749;47.850;9.002;2023-02-28T04:47:30;12.75;;;4.78;;
67965;SDS011;54749;47.850;9.002;2023-02-28T04:49:57;11.05;;;4.63;;
67965;SDS011;54749;47.850;9.002;2023-02-28T04:52:24;10.90;;;4.43;;
67965;SDS011;54749;47.850;9.002;2023-02-28T04:54:51;11.02;;;4.57;;
67965;SDS011;54749;47.850;9.002;2023-02-28T04:57:18;11.33;;;4.40;;
67965;SDS011;54749;47.850;9.002;2023-02-28T04:59:45;12.20;;;4.25;;
67965;SDS011;54749;47.850;9.002;2023-02-28T05:02:12;10.20;;;4.60;;
67965;SDS011;54749;47.850;9.002;2023-02-28T05:04:39;11.38;;;4.28;;
67965;SDS011;54749;47.850;9.002;2023-02-28T05:07:06;11.52;;;4.60;;
67965;SDS011;54749;47.850;9.002;2023-02-28T05:09:33;10.57;;;4.07;;
67965;SDS011;54749;47.850;9.002;2023-02-28T05:12:00;12.15;;;4.57;;
67965;SDS011;54749;47.850;9.002;2023-02-28T05:14:27;10.18;;;4.30;;
67965;SDS011;54749;47.850;9.002;2023-02-28T05:16:54;14.55;;;4.93;;
67965;SDS011;54749;47.850;9.002;2023-02-28T05:19:21;12.32;;;5.13;;
67965;SDS011;54749;47.850;9.002;2023-02-28T05:21:52;11.50;;;4.67;;
67965;SDS011;54749;47.850;9.002;2023-02-28T05:24:21;13.27;;;4.95;;
67965;SDS011;54749;47.850;9.002;2023-02-28T05:26:52;9.55;;;4.35;;
67965;SDS011;54749;47.850;9.002;2023-02-28T05:29:20;10.13;;;4.30;;
67965;SDS011;54749;47.850;9.002;2023-02-28T05:31:47;11.02;;;4.72;;
67965;SDS011;54749;47.850;9.002;2023-02-28T05:34:15;13.47;;;4.97;;
67965;SDS011;54749;47.850;9.002;2023-02-28T05:36:42;12.05;;;5.10;;
67965;SDS011;54749;47.850;9.002;2023-02-28T05:39:10;15.38;;;5.00;;
67965;SDS011;54749;47.850;9.002;2023-02-28T05:41:40;10.70;;;4.82;;
67965;SDS011;54749;47.850;9.002;2023-02-28T05:44:09;10.55;;;4.20;;
67965;SDS011;54749;47.850;9.002;2023-02-28T05:46:36;10.93;;;4.77;;
67965;SDS011;54749;47.850;9.002;2023-02-28T05:49:03;13.02;;;4.68;;
67965;SDS011;54749;47.850;9.002;2023-02-28T05:51:30;13.40;;;4.68;;
67965;SDS011;54749;47.850;9.002;2023-02-28T05:53:59;13.60;;;5.00;;
67965;SDS011;54749;47.850;9.002;2023-02-28T05:56:26;11.45;;;5.00;;
67965;SDS011;54749;47.850;9.002;2023-02-28T05:58:54;12.30;;;4.97;;
67965;SDS011;54749;47.850;9.002;2023-02-28T06:01:26;13.05;;;4.80;;
67965;SDS011;54749;47.850;9.002;2023-02-28T06:04:00;11.90;;;5.13;;
67965;SDS011;54749;47.850;9.002;2023-02-28T06:06:27;10.90;;;4.65;;
67965;SDS011;54749;47.850;9.002;2023-02-28T06:08:56;10.68;;;4.13;;
67965;SDS011;54749;47.850;9.002;2023-02-28T06:11:23;13.30;;;5.40;;
67965;SDS011;54749;47.850;9.002;2023-02-28T06:13:55;11.65;;;4.78;;
67965;SDS011;54749;47.850;9.002;2023-02-28T06:16:23;12.35;;;4.80;;
67965;SDS011;54749;47.850;9.002;2023-02-28T06:18:51;11.02;;;4.60;;
67965;SDS011;54749;47.850;9.002;2023-02-28T06:21:19;12.95;;;5.45;;
67965;SDS011;54749;47.850;9.002;2023-02-28T06:23:46;13.70;;;5.53;;
67965;SDS011;54749;47.850;9.002;2023-02-28T06:26:13;16.20;;;5.63;;
67965;SDS011;54749;47.850;9.002;2023-02-28T06:28:40;15.70;;;5.32;;
67965;SDS011;54749;47.850;9.002;2023-02-28T06:31:08;14.25;;;5.50;;
67965;SDS011;54749;47.850;9.002;2023-02-28T06:33:37;15.15;;;5.25;;
67965;SDS011;54749;47.850;9.002;2023-02-28T06:36:05;14.30;;;5.80;;
67965;SDS011;54749;47.850;9.002;2023-02-28T06:38:32;13.05;;;5.72;;
67965;SDS011;54749;47.850;9.002;2023-02-28T06:41:01;13.25;;;5.45;;
67965;SDS011;54749;47.850;9.002;2023-02-28T06:43:30;13.65;;;6.00;;
67965;SDS011;54749;47.850;9.002;2023-02-28T06:46:00;14.88;;;5.57;;
67965;SDS011;54749;47.850;9.002;2023-02-28T06:48:28;14.13;;;5.63;;
67965;SDS011;54749;47.850;9.002;2023-02-28T06:51:05;14.77;;;5.68;;
67965;SDS011;54749;47.850;9.002;2023-02-28T06:53:33;15.32;;;6.57;;
67965;SDS011;54749;47.850;9.002;2023-02-28T06:56:03;18.98;;;5.97;;
67965;SDS011;54749;47.850;9.002;2023-02-28T06:58:32;14.98;;;6.00;;
67965;SDS011;54749;47.850;9.002;2023-02-28T07:00:59;13.00;;;5.80;;
67965;SDS011;54749;47.850;9.002;2023-02-28T07:03:27;13.75;;;5.25;;
67965;SDS011;54749;47.850;9.002;2023-02-28T07:05:54;12.85;;;5.35;;
67965;SDS011;54749;47.850;9.002;2023-02-28T07:08:23;13.63;;;5.38;;
67965;SDS011;54749;47.850;9.002;2023-02-28T07:10:52;15.25;;;6.10;;
67965;SDS011;54749;47.850;9.002;2023-02-28T07:13:22;16.40;;;5.73;;
67965;SDS011;54749;47.850;9.002;2023-02-28T07:16:00;14.55;;;5.93;;
67965;SDS011;54749;47.850;9.002;2023-02-28T07:18:30;13.88;;;5.82;;
67965;SDS011;54749;47.850;9.002;2023-02-28T07:20:57;14.23;;;6.47;;
67965;SDS011;54749;47.850;9.002;2023-02-28T07:23:25;13.43;;;5.47;;
67965;SDS011;54749;47.850;9.002;2023-02-28T07:25:52;16.87;;;6.37;;
67965;SDS011;54749;47.850;9.002;2023-02-28T07:28:19;15.57;;;5.78;;
67965;SDS011;54749;47.850;9.002;2023-02-28T07:30:46;14.50;;;6.20;;
67965;SDS011;54749;47.850;9.002;2023-02-28T07:33:13;14.15;;;5.68;;
67965;SDS011;54749;47.850;9.002;2023-02-28T07:35:40;15.07;;;6.50;;
67965;SDS011;54749;47.850;9.002;2023-02-28T07:38:07;16.70;;;6.10;;
67965;SDS011;54749;47.850;9.002;2023-02-28T07:40:35;14.50;;;6.20;;
67965;SDS011;54749;47.850;9.002;2023-02-28T07:43:03;20.63;;;6.05;;
67965;SDS011;54749;47.850;9.002;2023-02-28T07:45:30;14.80;;;6.18;;
67965;SDS011;54749;47.850;9.002;2023-02-28T07:48:01;15.98;;;5.72;;
67965;SDS011;54749;47.850;9.002;2023-02-28T07:50:28;13.57;;;5.33;;
67965;SDS011;54749;47.850;9.002;2023-02-28T07:52:58;14.63;;;6.28;;
67965;SDS011;54749;47.850;9.002;2023-02-28T07:55:25;14.93;;;6.50;;
67965;SDS011;54749;47.850;9.002;2023-02-28T07:57:53;15.48;;;5.90;;
67965;SDS011;54749;47.850;9.002;2023-02-28T08:00:20;14.02;;;5.55;;
67965;SDS011;54749;47.850;9.002;2023-02-28T08:02:48;14.60;;;5.90;;
67965;SDS011;54749;47.850;9.002;2023-02-28T08:05:16;16.63;;;6.20;;
67965;SDS011;54749;47.850;9.002;2023-02-28T08:07:46;16.15;;;6.25;;
67965;SDS011;54749;47.850;9.002;2023-02-28T08:10:16;13.77;;;5.75;;
67965;SDS011;54749;47.850;9.002;2023-02-28T08:12:43;16.05;;;6.03;;
67965;SDS011;54749;47.850;9.002;2023-02-28T08:15:10;16.23;;;5.87;;
67965;SDS011;54749;47.850;9.002;2023-02-28T08:17:37;16.20;;;6.53;;
67965;SDS011;54749;47.850;9.002;2023-02-28T08:20:04;13.55;;;6.03;;
67965;SDS011;54749;47.850;9.002;2023-02-28T08:22:32;16.90;;;6.40;;
67965;SDS011;54749;47.850;9.002;2023-02-28T08:24:59;16.17;;;6.57;;
67965;SDS011;54749;47.850;9.002;2023-02-28T08:27:26;14.87;;;6.13;;
67965;SDS011;54749;47.850;9.002;2023-02-28T08:29:53;16.10;;;6.60;;
67965;SDS011;54749;47.850;9.002;2023-02-28T08:32:21;14.70;;;6.28;;
67965;SDS011;54749;47.850;9.002;2023-02-28T08:34:55;16.83;;;6.70;;
67965;SDS011;54749;47.850;9.002;2023-02-28T08:37:23;15.88;;;6.88;;
67965;SDS011;54749;47.850;9.002;2023-02-28T08:39:50;19.33;;;6.90;;
67965;SDS011;54749;47.850;9.002;2023-02-28T08:42:22;16.13;;;6.07;;
67965;SDS011;54749;47.850;9.002;2023-02-28T08:44:49;15.48;;;6.40;;
67965;SDS011;54749;47.850;9.002;2023-02-28T08:47:17;18.08;;;7.30;;
67965;SDS011;54749;47.850;9.002;2023-02-28T08:49:43;17.23;;;6.45;;
67965;SDS011;54749;47.850;9.002;2023-02-28T08:52:11;17.93;;;6.97;;
67965;SDS011;54749;47.850;9.002;2023-02-28T08:54:37;14.95;;;5.80;;
67965;SDS011;54749;47.850;9.002;2023-02-28T08:57:05;19.60;;;7.22;;
67965;SDS011;54749;47.850;9.002;2023-02-28T08:59:32;17.15;;;7.07;;
67965;SDS011;54749;47.850;9.002;2023-02-28T09:01:59;15.80;;;7.07;;
67965;SDS011;54749;47.850;9.002;2023-02-28T09:04:26;16.70;;;6.67;;
67965;SDS011;54749;47.850;9.002;2023-02-28T09:06:53;19.30;;;6.47;;
67965;SDS011;54749;47.850;9.002;2023-02-28T09:09:20;15.20;;;6.70;;
67965;SDS011;54749;47.850;9.002;2023-02-28T09:11:47;17.08;;;7.10;;
67965;SDS011;54749;47.850;9.002;2023-02-28T09:14:14;18.15;;;7.10;;
67965;SDS011;54749;47.850;9.002;2023-02-28T09:16:41;17.10;;;6.60;;
67965;SDS011;54749;47.850;9.002;2023-02-28T09:19:10;15.07;;;6.53;;
67965;SDS011;54749;47.850;9.002;2023-02-28T09:21:39;17.70;;;7.18;;
67965;SDS011;54749;47.850;9.002;2023-02-28T09:24:06;16.85;;;7.25;;
67965;SDS011;54749;47.850;9.002;2023-02-28T09:26:34;18.35;;;7.43;;
67965;SDS011;54749;47.850;9.002;2023-02-28T09:29:12;16.07;;;6.73;;
67965;SDS011;54749;47.850;9.002;2023-02-28T09:31:41;17.23;;;6.13;;
67965;SDS011;54749;47.850;9.002;2023-02-28T09:34:08;18.13;;;7.78;;
67965;SDS011;54749;47.850;9.002;2023-02-28T09:36:35;15.95;;;6.88;;
67965;SDS011;54749;47.850;9.002;2023-02-28T09:39:12;18.75;;;6.85;;
67965;SDS011;54749;47.850;9.002;2023-02-28T09:41:42;15.03;;;7.10;;
67965;SDS011;54749;47.850;9.002;2023-02-28T09:47:10;19.00;;;7.05;;
67965;SDS011;54749;47.850;9.002;2023-02-28T09:49:45;17.70;;;6.72;;
67965;SDS011;54749;47.850;9.002;2023-02-28T09:52:21;16.95;;;6.90;;
67965;SDS011;54749;47.850;9.002;2023-02-28T09:54:54;21.40;;;7.57;;
67965;SDS011;54749;47.850;9.002;2023-02-28T09:57:37;19.98;;;8.18;;
67965;SDS011;54749;47.850;9.002;2023-02-28T10:00:15;15.82;;;7.10;;
67965;SDS011;54749;47.850;9.002;2023-02-28T10:05:23;18.35;;;7.07;;
67965;SDS011;54749;47.850;9.002;2023-02-28T10:07:58;20.03;;;7.87;;
67965;SDS011;54749;47.850;9.002;2023-02-28T10:10:36;19.23;;;7.28;;
67965;SDS011;54749;47.850;9.002;2023-02-28T10:15:47;18.60;;;7.35;;
67965;SDS011;54749;47.850;9.002;2023-02-28T10:18:24;22.75;;;7.68;;
67965;SDS011;54749;47.850;9.002;2023-02-28T10:20:53;18.20;;;7.50;;
67965;SDS011;54749;47.850;9.002;2023-02-28T10:23:31;17.15;;;7.53;;
67965;SDS011;54749;47.850;9.002;2023-02-28T10:26:08;18.80;;;7.93;;
67965;SDS011;54749;47.850;9.002;2023-02-28T10:28:39;17.35;;;6.90;;
67965;SDS011;54749;47.850;9.002;2023-02-28T10:31:08;16.13;;;7.05;;
67965;SDS011;54749;47.850;9.002;2023-02-28T10:33:46;18.60;;;7.77;;
67965;SDS011;54749;47.850;9.002;2023-02-28T10:36:15;18.92;;;7.38;;
67965;SDS011;54749;47.850;9.002;2023-02-28T10:38:44;20.95;;;8.05;;
67965;SDS011;54749;47.850;9.002;2023-02-28T10:41:17;17.10;;;7.40;;
67965;SDS011;54749;47.850;9.002;2023-02-28T10:44:12;17.88;;;7.60;;
67965;SDS011;54749;47.850;9.002;2023-02-28T10:46:50;19.97;;;7.43;;
67965;SDS011;54749;47.850;9.002;2023-02-28T10:49:22;19.83;;;8.00;;
67965;SDS011;54749;47.850;9.002;2023-02-28T10:51:54;19.80;;;8.10;;
67965;SDS011;54749;47.850;9.002;2023-02-28T10:54:33;21.58;;;8.00;;
67965;SDS011;54749;47.850;9.002;2023-02-28T10:57:17;19.27;;;7.65;;
67965;SDS011;54749;47.850;9.002;2023-02-28T10:59:44;19.87;;;7.27;;
67965;SDS011;54749;47.850;9.002;2023-02-28T11:08:06;19.10;;;7.78;;
67965;SDS011;54749;47.850;9.002;2023-02-28T11:10:39;16.02;;;7.60;;
67965;SDS011;54749;47.850;9.002;2023-02-28T11:13:19;19.47;;;7.80;;
67965;SDS011;54749;47.850;9.002;2023-02-28T11:15:51;23.05;;;7.78;;
67965;SDS011;54749;47.850;9.002;2023-02-28T11:18:30;17.40;;;7.57;;
67965;SDS011;54749;47.850;9.002;2023-02-28T11:21:03;20.35;;;8.05;;
67965;SDS011;54749;47.850;9.002;2023-02-28T11:23:31;18.55;;;8.38;;
67965;SDS011;54749;47.850;9.002;2023-02-28T11:26:03;20.43;;;8.13;;
67965;SDS011;54749;47.850;9.002;2023-02-28T11:28:38;23.70;;;7.93;;
67965;SDS011;54749;47.850;9.002;2023-02-28T11:33:53;19.98;;;8.55;;
67965;SDS011;54749;47.850;9.002;2023-02-28T11:36:24;21.63;;;8.30;;
67965;SDS011;54749;47.850;9.002;2023-02-28T11:38:53;20.93;;;8.90;;
67965;SDS011;54749;47.850;9.002;2023-02-28T11:41:43;20.95;;;8.45;;
67965;SDS011;54749;47.850;9.002;2023-02-28T11:44:43;20.60;;;7.93;;
67965;SDS011;54749;47.850;9.002;2023-02-28T11:58:41;21.67;;;9.10;;
67965;SDS011;54749;47.850;9.002;2023-02-28T12:03:54;20.80;;;8.55;;
67965;SDS011;54749;47.850;9.002;2023-02-28T12:09:00;18.75;;;7.90;;
67965;SDS011;54749;47.850;9.002;2023-02-28T12:11:40;20.17;;;8.45;;
67965;SDS011;54749;47.850;9.002;2023-02-28T12:25:21;22.75;;;9.27;;
67965;SDS011;54749;47.850;9.002;2023-02-28T12:27:55;18.33;;;8.20;;
67965;SDS011;54749;47.850;9.002;2023-02-28T12:30:24;21.58;;;9.27;;
67965;SDS011;54749;47.850;9.002;2023-02-28T12:33:06;18.47;;;8.30;;
67965;SDS011;54749;47.850;9.002;2023-02-28T12:35:51;20.02;;;8.80;;
67965;SDS011;54749;47.850;9.002;2023-02-28T12:38:36;21.48;;;9.45;;
67965;SDS011;54749;47.850;9.002;2023-02-28T12:43:47;20.63;;;9.00;;
67965;SDS011;54749;47.850;9.002;2023-02-28T12:46:34;21.43;;;8.50;;
67965;SDS011;54749;47.850;9.002;2023-02-28T12:49:06;20.30;;;8.32;;
67965;SDS011;54749;47.850;9.002;2023-02-28T12:51:37;19.30;;;8.95;;
67965;SDS011;54749;47.850;9.002;2023-02-28T12:59:34;19.73;;;9.20;;
67965;SDS011;54749;47.850;9.002;2023-02-28T13:02:26;20.35;;;8.75;;
67965;SDS011;54749;47.850;9.002;2023-02-28T13:10:47;22.95;;;9.55;;
67965;SDS011;54749;47.850;9.002;2023-02-28T13:13:25;26.00;;;9.87;;
67965;SDS011;54749;47.850;9.002;2023-02-28T13:15:57;21.60;;;9.38;;
67965;SDS011;54749;47.850;9.002;2023-02-28T13:21:27;22.75;;;9.57;;
67965;SDS011;54749;47.850;9.002;2023-02-28T13:23:58;22.35;;;9.20;;
67965;SDS011;54749;47.850;9.002;2023-02-28T13:28:58;20.92;;;9.02;;
67965;SDS011;54749;47.850;9.002;2023-02-28T13:32:18;21.02;;;8.82;;
67965;SDS011;54749;47.850;9.002;2023-02-28T13:39:49;20.07;;;9.17;;
67965;SDS011;54749;47.850;9.002;2023-02-28T13:47:29;23.50;;;10.02;;
67965;SDS011;54749;47.850;9.002;2023-02-28T14:06:48;21.67;;;9.13;;
67965;SDS011;54749;47.850;9.002;2023-02-28T14:11:57;21.90;;;9.07;;
67965;SDS011;54749;47.850;9.002;2023-02-28T14:17:15;21.75;;;9.65;;
67965;SDS011;54749;47.850;9.002;2023-02-28T14:19:44;25.17;;;10.45;;
67965;SDS011;54749;47.850;9.002;2023-02-28T14:38:52;21.73;;;9.38;;
67965;SDS011;54749;47.850;9.002;2023-02-28T14:41:23;22.83;;;9.55;;
67965;SDS011;54749;47.850;9.002;2023-02-28T14:43:57;19.52;;;9.15;;
67965;SDS011;54749;47.850;9.002;2023-02-28T14:46:26;21.10;;;9.38;;
67965;SDS011;54749;47.850;9.002;2023-02-28T14:49:01;22.67;;;10.47;;
67965;SDS011;54749;47.850;9.002;2023-02-28T14:51:30;23.77;;;10.35;;
67965;SDS011;54749;47.850;9.002;2023-02-28T14:53:58;22.45;;;10.20;;
67965;SDS011;54749;47.850;9.002;2023-02-28T14:56:32;23.63;;;10.18;;
67965;SDS011;54749;47.850;9.002;2023-02-28T14:59:04;20.60;;;9.93;;
67965;SDS011;54749;47.850;9.002;2023-02-28T15:01:31;23.30;;;9.57;;
67965;SDS011;54749;47.850;9.002;2023-02-28T15:04:04;21.50;;;9.27;;
67965;SDS011;54749;47.850;9.002;2023-02-28T15:06:32;20.92;;;9.27;;
67965;SDS011;54749;47.850;9.002;2023-02-28T15:09:11;19.83;;;9.80;;
67965;SDS011;54749;47.850;9.002;2023-02-28T15:11:42;24.65;;;10.18;;
67965;SDS011;54749;47.850;9.002;2023-02-28T15:14:15;23.47;;;10.17;;
67965;SDS011;54749;47.850;9.002;2023-02-28T15:16:46;24.35;;;10.93;;
67965;SDS011;54749;47.850;9.002;2023-02-28T15:19:22;24.95;;;10.68;;
67965;SDS011;54749;47.850;9.002;2023-02-28T15:21:53;25.70;;;10.05;;
67965;SDS011;54749;47.850;9.002;2023-02-28T15:24:31;23.23;;;9.75;;
67965;SDS011;54749;47.850;9.002;2023-02-28T15:27:44;22.23;;;9.37;;
67965;SDS011;54749;47.850;9.002;2023-02-28T15:30:08;22.48;;;10.20;;
67965;SDS011;54749;47.850;9.002;2023-02-28T15:32:41;22.48;;;9.82;;
67965;SDS011;54749;47.850;9.002;2023-02-28T15:37:55;21.33;;;9.93;;
67965;SDS011;54749;47.850;9.002;2023-02-28T15:43:06;24.38;;;11.25;;
67965;SDS011;54749;47.850;9.002;2023-02-28T15:45:44;24.52;;;10.77;;
67965;SDS011;54749;47.850;9.002;2023-02-28T15:48:18;23.23;;;9.20;;
67965;SDS011;54749;47.850;9.002;2023-02-28T15:50:54;24.13;;;9.60;;
67965;SDS011;54749;47.850;9.002;2023-02-28T15:53:29;20.87;;;9.27;;
67965;SDS011;54749;47.850;9.002;2023-02-28T15:56:02;25.65;;;10.75;;
67965;SDS011;54749;47.850;9.002;2023-02-28T15:58:32;23.90;;;9.77;;
67965;SDS011;54749;47.850;9.002;2023-02-28T16:01:04;24.23;;;10.45;;
67965;SDS011;54749;47.850;9.002;2023-02-28T16:03:44;27.50;;;10.57;;
67965;SDS011;54749;47.850;9.002;2023-02-28T16:09:12;21.87;;;10.07;;
67965;SDS011;54749;47.850;9.002;2023-02-28T16:14:17;21.70;;;9.68;;
67965;SDS011;54749;47.850;9.002;2023-02-28T16:16:54;25.15;;;10.20;;
67965;SDS011;54749;47.850;9.002;2023-02-28T16:19:23;22.85;;;9.68;;
67965;SDS011;54749;47.850;9.002;2023-02-28T16:21:50;21.60;;;9.37;;
67965;SDS011;54749;47.850;9.002;2023-02-28T16:24:17;22.77;;;9.70;;
67965;SDS011;54749;47.850;9.002;2023-02-28T16:26:45;24.20;;;10.07;;
67965;SDS011;54749;47.850;9.002;2023-02-28T16:29:17;23.42;;;10.07;;
67965;SDS011;54749;47.850;9.002;2023-02-28T16:31:49;21.48;;;9.65;;
67965;SDS011;54749;47.850;9.002;2023-02-28T16:34:16;23.05;;;10.52;;
67965;SDS011;54749;47.850;9.002;2023-02-28T16:36:46;21.80;;;9.93;;
67965;SDS011;54749;47.850;9.002;2023-02-28T16:39:14;25.57;;;10.57;;
67965;SDS011;54749;47.850;9.002;2023-02-28T16:41:42;23.48;;;9.93;;
67965;SDS011;54749;47.850;9.002;2023-02-28T16:44:19;21.30;;;9.23;;
67965;SDS011;54749;47.850;9.002;2023-02-28T16:46:53;24.45;;;9.85;;
67965;SDS011;54749;47.850;9.002;2023-02-28T16:49:20;21.23;;;9.57;;
67965;SDS011;54749;47.850;9.002;2023-02-28T16:51:47;21.93;;;8.73;;
67965;SDS011;54749;47.850;9.002;2023-02-28T16:54:14;19.70;;;8.68;;
67965;SDS011;54749;47.850;9.002;2023-02-28T16:56:42;21.38;;;9.10;;
67965;SDS011;54749;47.850;9.002;2023-02-28T16:59:11;20.92;;;8.75;;
67965;SDS011;54749;47.850;9.002;2023-02-28T17:01:39;20.52;;;8.05;;
67965;SDS011;54749;47.850;9.002;2023-02-28T17:04:08;20.40;;;8.53;;
67965;SDS011;54749;47.850;9.002;2023-02-28T17:06:36;20.67;;;9.30;;
67965;SDS011;54749;47.850;9.002;2023-02-28T17:09:03;23.52;;;9.15;;
67965;SDS011;54749;47.850;9.002;2023-02-28T17:11:30;25.90;;;9.00;;
67965;SDS011;54749;47.850;9.002;2023-02-28T17:13:57;17.80;;;7.20;;
67965;SDS011;54749;47.850;9.002;2023-02-28T17:19:00;21.03;;;7.73;;
67965;SDS011;54749;47.850;9.002;2023-02-28T17:21:29;21.15;;;8.00;;
67965;SDS011;54749;47.850;9.002;2023-02-28T17:23:58;20.05;;;7.25;;
67965;SDS011;54749;47.850;9.002;2023-02-28T17:26:25;16.58;;;6.47;;
67965;SDS011;54749;47.850;9.002;2023-02-28T17:28:53;19.05;;;7.38;;
67965;SDS011;54749;47.850;9.002;2023-02-28T17:31:23;18.23;;;7.80;;
67965;SDS011;54749;47.850;9.002;2023-02-28T17:33:53;17.13;;;7.22;;
67965;SDS011;54749;47.850;9.002;2023-02-28T17:36:23;17.70;;;6.55;;
67965;SDS011;54749;47.850;9.002;2023-02-28T17:38:53;15.05;;;6.82;;